sensor_id;sensor_type;location;lat;lon;timestamp;pressure;altitude;pressure_sealevel;temperature;humidity
39449;BME280;25151;45.566;9.382;2023-05-22T00:01:31;99524.25;;;21.05;64.55
39449;BME280;25151;45.566;9.382;2023-05-22T00:04:31;99521.91;;;21.04;64.63
39449;BME280;25151;45.566;9.382;2023-05-22T00:07:32;99528.28;;;21.04;64.30
39449;BME280;25151;45.566;9.382;2023-05-22T00:10:33;99525.97;;;21.03;64.20
39449;BME280;25151;45.566;9.382;2023-05-22T00:13:34;99537.94;;;21.03;64.58
39449;BME280;25151;45.566;9.382;2023-05-22T00:16:35;99532.00;;;21.01;64.25
39449;BME280;25151;45.566;9.382;2023-05-22T00:19:35;99546.81;;;21.02;64.56
39449;BME280;25151;45.566;9.382;2023-05-22T00:22:36;99546.38;;;21.03;64.63
39449;BME280;25151;45.566;9.382;2023-05-22T00:25:37;99546.81;;;21.02;64.49
39449;BME280;25151;45.566;9.382;2023-05-22T00:28:38;99545.25;;;21.01;64.64
39449;BME280;25151;45.566;9.382;2023-05-22T00:31:39;99535.28;;;21.00;64.57
39449;BME280;25151;45.566;9.382;2023-05-22T00:34:40;99538.09;;;21.00;64.62
39449;BME280;25151;45.566;9.382;2023-05-22T00:37:40;99525.63;;;21.01;64.55
39449;BME280;25151;45.566;9.382;2023-05-22T00:40:41;99533.25;;;21.00;64.43
39449;BME280;25151;45.566;9.382;2023-05-22T00:43:42;99532.47;;;21.00;64.42
39449;BME280;25151;45.566;9.382;2023-05-22T00:46:44;99522.97;;;20.97;64.55
39449;BME280;25151;45.566;9.382;2023-05-22T00:49:45;99527.00;;;20.96;64.49
39449;BME280;25151;45.566;9.382;2023-05-22T00:52:46;99524.97;;;20.97;64.23
39449;BME280;25151;45.566;9.382;2023-05-22T00:55:47;99531.06;;;20.95;64.47
39449;BME280;25151;45.566;9.382;2023-05-22T00:58:49;99540.56;;;20.98;64.21
39449;BME280;25151;45.566;9.382;2023-05-22T01:01:50;99536.19;;;20.97;64.30
39449;BME280;25151;45.566;9.382;2023-05-22T01:04:51;99543.81;;;20.96;64.40
39449;BME280;25151;45.566;9.382;2023-05-22T01:07:53;99535.09;;;20.94;64.35
39449;BME280;25151;45.566;9.382;2023-05-22T01:11:03;99547.88;;;20.95;64.29
39449;BME280;25151;45.566;9.382;2023-05-22T01:14:24;99580.75;;;20.95;64.32
39449;BME280;25151;45.566;9.382;2023-05-22T01:17:49;99583.53;;;20.95;64.22
39449;BME280;25151;45.566;9.382;2023-05-22T01:21:02;99591.13;;;20.94;64.42
39449;BME280;25151;45.566;9.382;2023-05-22T01:27:26;99571.22;;;20.92;64.54
39449;BME280;25151;45.566;9.382;2023-05-22T01:34:01;99574.78;;;20.93;64.26
39449;BME280;25151;45.566;9.382;2023-05-22T01:37:05;99573.69;;;20.90;64.59
39449;BME280;25151;45.566;9.382;2023-05-22T01:40:07;99576.03;;;20.92;64.58
39449;BME280;25151;45.566;9.382;2023-05-22T01:43:09;99575.25;;;20.91;64.53
39449;BME280;25151;45.566;9.382;2023-05-22T01:46:10;99578.06;;;20.91;64.37
39449;BME280;25151;45.566;9.382;2023-05-22T01:49:12;99568.06;;;20.90;64.45
39449;BME280;25151;45.566;9.382;2023-05-22T01:52:32;99568.06;;;20.90;64.40
39449;BME280;25151;45.566;9.382;2023-05-22T01:56:02;99566.06;;;20.91;64.59
39449;BME280;25151;45.566;9.382;2023-05-22T02:02:20;99553.75;;;20.88;64.29
39449;BME280;25151;45.566;9.382;2023-05-22T02:05:23;99569.31;;;20.89;64.28
39449;BME280;25151;45.566;9.382;2023-05-22T02:08:26;99565.28;;;20.90;64.49
39449;BME280;25151;45.566;9.382;2023-05-22T02:11:30;99562.16;;;20.88;64.36
39449;BME280;25151;45.566;9.382;2023-05-22T02:14:32;99553.75;;;20.88;64.40
39449;BME280;25151;45.566;9.382;2023-05-22T02:17:37;99548.13;;;20.88;64.44
39449;BME280;25151;45.566;9.382;2023-05-22T02:20:40;99550.47;;;20.90;64.33
39449;BME280;25151;45.566;9.382;2023-05-22T02:23:41;99556.56;;;20.88;64.27
39449;BME280;25151;45.566;9.382;2023-05-22T02:26:42;99543.78;;;20.87;64.29
39449;BME280;25151;45.566;9.382;2023-05-22T02:29:43;99553.41;;;20.86;64.34
39449;BME280;25151;45.566;9.382;2023-05-22T02:32:44;99552.97;;;20.87;64.28
39449;BME280;25151;45.566;9.382;2023-05-22T02:35:45;99559.00;;;20.86;64.37
39449;BME280;25151;45.566;9.382;2023-05-22T02:38:46;99569.44;;;20.85;64.21
39449;BME280;25151;45.566;9.382;2023-05-22T02:41:47;99567.41;;;20.86;64.24
39449;BME280;25151;45.566;9.382;2023-05-22T02:44:48;99565.88;;;20.85;64.56
39449;BME280;25151;45.566;9.382;2023-05-22T02:47:48;99575.06;;;20.85;64.41
39449;BME280;25151;45.566;9.382;2023-05-22T02:50:49;99573.03;;;20.86;64.57
39449;BME280;25151;45.566;9.382;2023-05-22T02:53:51;99576.28;;;20.84;64.32
39449;BME280;25151;45.566;9.382;2023-05-22T02:56:53;99595.13;;;20.84;64.41
39449;BME280;25151;45.566;9.382;2023-05-22T02:59:55;99597.94;;;20.84;64.40
39449;BME280;25151;45.566;9.382;2023-05-22T03:02:56;99589.53;;;20.84;64.24
39449;BME280;25151;45.566;9.382;2023-05-22T03:05:57;99592.34;;;20.84;64.60
39449;BME280;25151;45.566;9.382;2023-05-22T03:08:58;99588.75;;;20.83;64.30
39449;BME280;25151;45.566;9.382;2023-05-22T03:11:59;99586.72;;;20.84;64.42
39449;BME280;25151;45.566;9.382;2023-05-22T03:15:01;99584.38;;;20.82;64.30
39449;BME280;25151;45.566;9.382;2023-05-22T03:18:02;99585.94;;;20.83;64.32
39449;BME280;25151;45.566;9.382;2023-05-22T03:21:04;99570.81;;;20.81;64.28
39449;BME280;25151;45.566;9.382;2023-05-22T03:24:07;99572.38;;;20.82;64.47
39449;BME280;25151;45.566;9.382;2023-05-22T03:27:08;99582.03;;;20.81;64.56
39449;BME280;25151;45.566;9.382;2023-05-22T03:30:09;99577.22;;;20.81;64.71
39449;BME280;25151;45.566;9.382;2023-05-22T03:33:10;99577.97;;;20.82;64.43
39449;BME280;25151;45.566;9.382;2023-05-22T03:36:11;99571.59;;;20.81;64.43
39449;BME280;25151;45.566;9.382;2023-05-22T03:39:12;99570.81;;;20.81;64.56
39449;BME280;25151;45.566;9.382;2023-05-22T03:42:12;99572.06;;;20.80;64.74
39449;BME280;25151;45.566;9.382;2023-05-22T03:45:14;99568.03;;;20.81;64.53
39449;BME280;25151;45.566;9.382;2023-05-22T03:48:17;99556.50;;;20.79;64.33
39449;BME280;25151;45.566;9.382;2023-05-22T03:51:17;99558.84;;;20.80;64.38
39449;BME280;25151;45.566;9.382;2023-05-22T03:54:18;99558.84;;;20.80;64.61
39449;BME280;25151;45.566;9.382;2023-05-22T03:57:19;99552.44;;;20.80;64.69
39449;BME280;25151;45.566;9.382;2023-05-22T04:00:20;99546.06;;;20.79;64.25
39449;BME280;25151;45.566;9.382;2023-05-22T04:03:21;99549.66;;;20.80;64.63
39449;BME280;25151;45.566;9.382;2023-05-22T04:06:21;99545.28;;;20.79;64.44
39449;BME280;25151;45.566;9.382;2023-05-22T04:09:25;99563.66;;;20.80;64.59
39449;BME280;25151;45.566;9.382;2023-05-22T04:12:26;99567.72;;;20.79;64.55
39449;BME280;25151;45.566;9.382;2023-05-22T04:15:27;99567.72;;;20.79;64.33
39449;BME280;25151;45.566;9.382;2023-05-22T04:18:28;99573.31;;;20.79;64.18
39449;BME280;25151;45.566;9.382;2023-05-22T04:21:30;99571.72;;;20.78;64.64
39449;BME280;25151;45.566;9.382;2023-05-22T04:24:33;99576.13;;;20.79;64.62
39449;BME280;25151;45.566;9.382;2023-05-22T04:27:34;99576.13;;;20.79;64.36
39449;BME280;25151;45.566;9.382;2023-05-22T04:30:35;99574.53;;;20.78;64.76
39449;BME280;25151;45.566;9.382;2023-05-22T04:33:36;99575.31;;;20.78;64.38
39449;BME280;25151;45.566;9.382;2023-05-22T04:36:37;99576.56;;;20.77;64.73
39449;BME280;25151;45.566;9.382;2023-05-22T04:39:38;99582.16;;;20.77;64.43
39449;BME280;25151;45.566;9.382;2023-05-22T04:42:40;99580.91;;;20.78;64.38
39449;BME280;25151;45.566;9.382;2023-05-22T04:45:44;99580.78;;;20.82;64.47
39449;BME280;25151;45.566;9.382;2023-05-22T04:48:45;99577.53;;;20.83;64.33
39449;BME280;25151;45.566;9.382;2023-05-22T04:51:46;99586.72;;;20.84;64.48
39449;BME280;25151;45.566;9.382;2023-05-22T04:54:47;99583.59;;;20.82;64.56
39449;BME280;25151;45.566;9.382;2023-05-22T04:57:50;99592.34;;;20.84;64.39
39449;BME280;25151;45.566;9.382;2023-05-22T05:00:55;99579.56;;;20.83;64.33
39449;BME280;25151;45.566;9.382;2023-05-22T05:03:56;99578.75;;;20.82;64.55
39449;BME280;25151;45.566;9.382;2023-05-22T05:06:57;99582.69;;;20.85;64.33
39449;BME280;25151;45.566;9.382;2023-05-22T05:09:58;99577.84;;;20.85;64.54
39449;BME280;25151;45.566;9.382;2023-05-22T05:12:58;99582.69;;;20.85;64.70
39449;BME280;25151;45.566;9.382;2023-05-22T05:15:59;99586.25;;;20.85;64.44
39449;BME280;25151;45.566;9.382;2023-05-22T05:19:00;99581.00;;;20.87;64.59
39449;BME280;25151;45.566;9.382;2023-05-22T05:22:00;99583.03;;;20.87;64.40
39449;BME280;25151;45.566;9.382;2023-05-22T05:25:04;99583.03;;;20.87;64.36
39449;BME280;25151;45.566;9.382;2023-05-22T05:28:05;99587.38;;;20.88;64.42
39449;BME280;25151;45.566;9.382;2023-05-22T05:31:10;99573.38;;;20.88;64.76
39449;BME280;25151;45.566;9.382;2023-05-22T05:34:11;99582.56;;;20.88;64.68
39449;BME280;25151;45.566;9.382;2023-05-22T05:37:12;99582.09;;;20.90;64.58
39449;BME280;25151;45.566;9.382;2023-05-22T05:40:13;99578.50;;;20.90;64.72
39449;BME280;25151;45.566;9.382;2023-05-22T05:43:14;99574.47;;;20.91;64.59
39449;BME280;25151;45.566;9.382;2023-05-22T05:46:14;99571.22;;;20.92;64.69
39449;BME280;25151;45.566;9.382;2023-05-22T05:49:15;99579.16;;;20.94;64.57
39449;BME280;25151;45.566;9.382;2023-05-22T05:52:16;99582.41;;;20.92;64.80
39449;BME280;25151;45.566;9.382;2023-05-22T05:55:17;99579.63;;;20.92;64.69
39449;BME280;25151;45.566;9.382;2023-05-22T05:58:17;99591.13;;;20.94;64.60
39449;BME280;25151;45.566;9.382;2023-05-22T06:01:18;99586.34;;;20.95;64.92
39449;BME280;25151;45.566;9.382;2023-05-22T06:04:19;99583.53;;;20.95;64.86
39449;BME280;25151;45.566;9.382;2023-05-22T06:07:20;99592.72;;;20.95;65.01
39449;BME280;25151;45.566;9.382;2023-05-22T06:10:21;99586.78;;;20.93;64.70
39449;BME280;25151;45.566;9.382;2023-05-22T06:13:21;99598.78;;;20.94;64.68
39449;BME280;25151;45.566;9.382;2023-05-22T06:16:25;99602.34;;;20.94;64.90
39449;BME280;25151;45.566;9.382;2023-05-22T06:19:26;99597.56;;;20.95;64.58
39449;BME280;25151;45.566;9.382;2023-05-22T06:22:28;99603.94;;;20.95;64.70
39449;BME280;25151;45.566;9.382;2023-05-22T06:25:29;99607.06;;;20.97;64.89
39449;BME280;25151;45.566;9.382;2023-05-22T06:28:30;99607.06;;;20.97;64.97
39449;BME280;25151;45.566;9.382;2023-05-22T06:31:31;99606.28;;;20.97;64.55
39449;BME280;25151;45.566;9.382;2023-05-22T06:34:34;99606.13;;;21.00;64.67
39449;BME280;25151;45.566;9.382;2023-05-22T06:37:35;99601.78;;;20.99;64.51
39449;BME280;25151;45.566;9.382;2023-05-22T06:40:38;99609.72;;;21.01;64.68
39449;BME280;25151;45.566;9.382;2023-05-22T06:43:38;99608.94;;;21.00;64.87
39449;BME280;25151;45.566;9.382;2023-05-22T06:46:39;99610.19;;;20.99;64.72
39449;BME280;25151;45.566;9.382;2023-05-22T06:49:40;99613.31;;;21.01;64.77
39449;BME280;25151;45.566;9.382;2023-05-22T06:52:45;99607.69;;;21.01;64.57
39449;BME280;25151;45.566;9.382;2023-05-22T06:55:46;99609.25;;;21.02;64.73
39449;BME280;25151;45.566;9.382;2023-05-22T06:58:47;99608.47;;;21.02;64.92
39449;BME280;25151;45.566;9.382;2023-05-22T07:01:48;99603.66;;;21.02;64.39
39449;BME280;25151;45.566;9.382;2023-05-22T07:04:51;99600.41;;;21.04;64.77
39449;BME280;25151;45.566;9.382;2023-05-22T07:07:52;99600.41;;;21.04;64.51
39449;BME280;25151;45.566;9.382;2023-05-22T07:10:53;99608.34;;;21.05;64.63
39449;BME280;25151;45.566;9.382;2023-05-22T07:13:54;99602.75;;;21.05;64.88
39449;BME280;25151;45.566;9.382;2023-05-22T07:16:55;99599.16;;;21.05;64.75
39449;BME280;25151;45.566;9.382;2023-05-22T07:19:56;99595.56;;;21.04;64.61
39449;BME280;25151;45.566;9.382;2023-05-22T07:22:57;99609.59;;;21.04;64.72
39449;BME280;25151;45.566;9.382;2023-05-22T07:25:58;99596.34;;;21.05;64.99
39449;BME280;25151;45.566;9.382;2023-05-22T07:28:59;99599.16;;;21.05;64.65
39449;BME280;25151;45.566;9.382;2023-05-22T07:32:00;99599.63;;;21.03;64.32
39449;BME280;25151;45.566;9.382;2023-05-22T07:35:01;99595.56;;;21.04;64.48
39449;BME280;25151;45.566;9.382;2023-05-22T07:38:02;99599.16;;;21.05;64.46
39449;BME280;25151;45.566;9.382;2023-05-22T07:41:03;99599.16;;;21.05;64.32
39449;BME280;25151;45.566;9.382;2023-05-22T07:44:04;99600.72;;;21.06;64.43
39449;BME280;25151;45.566;9.382;2023-05-22T07:47:05;99599.63;;;21.03;64.33
39449;BME280;25151;45.566;9.382;2023-05-22T07:50:06;99601.19;;;21.04;64.46
39449;BME280;25151;45.566;9.382;2023-05-22T07:53:07;99597.13;;;21.05;64.31
39449;BME280;25151;45.566;9.382;2023-05-22T07:56:08;99605.22;;;21.03;64.47
39449;BME280;25151;45.566;9.382;2023-05-22T07:59:09;99608.34;;;21.05;64.24
39449;BME280;25151;45.566;9.382;2023-05-22T08:02:14;99601.19;;;21.04;64.22
39449;BME280;25151;45.566;9.382;2023-05-22T08:05:15;99608.34;;;21.05;64.40
39449;BME280;25151;45.566;9.382;2023-05-22T08:08:16;99611.94;;;21.06;64.09
39449;BME280;25151;45.566;9.382;2023-05-22T08:11:19;99604.00;;;21.04;64.53
39449;BME280;25151;45.566;9.382;2023-05-22T08:14:21;99613.94;;;21.05;64.46
39449;BME280;25151;45.566;9.382;2023-05-22T08:17:24;99612.72;;;21.06;64.27
39449;BME280;25151;45.566;9.382;2023-05-22T08:20:24;99604.28;;;21.06;64.15
39449;BME280;25151;45.566;9.382;2023-05-22T08:23:25;99605.88;;;21.07;64.16
39449;BME280;25151;45.566;9.382;2023-05-22T08:26:26;99602.59;;;21.09;63.98
39449;BME280;25151;45.566;9.382;2023-05-22T08:29:27;99596.22;;;21.08;64.04
39449;BME280;25151;45.566;9.382;2023-05-22T08:32:28;99601.84;;;21.08;64.01
39449;BME280;25151;45.566;9.382;2023-05-22T08:35:29;99601.84;;;21.08;63.80
39449;BME280;25151;45.566;9.382;2023-05-22T08:38:30;99591.41;;;21.09;64.19
39449;BME280;25151;45.566;9.382;2023-05-22T08:41:30;99585.00;;;21.08;64.20
39449;BME280;25151;45.566;9.382;2023-05-22T08:44:31;99582.97;;;21.09;64.03
39449;BME280;25151;45.566;9.382;2023-05-22T08:47:33;99588.59;;;21.09;64.38
39449;BME280;25151;45.566;9.382;2023-05-22T08:50:41;99585.00;;;21.08;64.37
39449;BME280;25151;45.566;9.382;2023-05-22T08:53:47;99582.19;;;21.08;64.02
39449;BME280;25151;45.566;9.382;2023-05-22T08:56:55;99580.19;;;21.09;64.32
39449;BME280;25151;45.566;9.382;2023-05-22T08:59:56;99579.75;;;21.10;64.25
39449;BME280;25151;45.566;9.382;2023-05-22T09:02:57;99578.16;;;21.09;63.94
39449;BME280;25151;45.566;9.382;2023-05-22T09:06:00;99572.88;;;21.11;64.11
39449;BME280;25151;45.566;9.382;2023-05-22T09:09:01;99574.13;;;21.10;63.96
39449;BME280;25151;45.566;9.382;2023-05-22T09:12:06;99572.09;;;21.11;64.13
39449;BME280;25151;45.566;9.382;2023-05-22T09:15:09;99571.63;;;21.12;63.86
39449;BME280;25151;45.566;9.382;2023-05-22T09:18:10;99576.94;;;21.10;63.94
39449;BME280;25151;45.566;9.382;2023-05-22T09:21:12;99585.66;;;21.12;63.91
39449;BME280;25151;45.566;9.382;2023-05-22T09:24:14;99578.50;;;21.11;64.07
39449;BME280;25151;45.566;9.382;2023-05-22T09:27:15;99573.66;;;21.12;64.09
39449;BME280;25151;45.566;9.382;2023-05-22T09:30:17;99581.59;;;21.13;63.80
39449;BME280;25151;45.566;9.382;2023-05-22T09:33:18;99576.78;;;21.14;63.80
39449;BME280;25151;45.566;9.382;2023-05-22T09:36:20;99576.00;;;21.13;64.03
39449;BME280;25151;45.566;9.382;2023-05-22T09:39:22;99586.00;;;21.15;64.03
39449;BME280;25151;45.566;9.382;2023-05-22T09:42:26;99581.16;;;21.15;64.10
39449;BME280;25151;45.566;9.382;2023-05-22T09:45:27;99576.00;;;21.13;63.92
39449;BME280;25151;45.566;9.382;2023-05-22T09:48:33;99580.81;;;21.13;64.08
39449;BME280;25151;45.566;9.382;2023-05-22T09:51:38;99566.38;;;21.15;64.03
39449;BME280;25151;45.566;9.382;2023-05-22T09:54:46;99570.72;;;21.16;63.89
39449;BME280;25151;45.566;9.382;2023-05-22T09:57:55;99567.16;;;21.15;64.06
39449;BME280;25151;45.566;9.382;2023-05-22T10:00:56;99573.53;;;21.16;63.92
39449;BME280;25151;45.566;9.382;2023-05-22T10:03:59;99569.47;;;21.17;64.13
39449;BME280;25151;45.566;9.382;2023-05-22T10:07:01;99571.03;;;21.18;64.23
39449;BME280;25151;45.566;9.382;2023-05-22T10:10:06;99566.66;;;21.17;63.68
39449;BME280;25151;45.566;9.382;2023-05-22T10:13:10;99559.03;;;21.17;64.07
39449;BME280;25151;45.566;9.382;2023-05-22T10:16:13;99558.25;;;21.17;63.80
39449;BME280;25151;45.566;9.382;2023-05-22T10:19:16;99554.22;;;21.18;63.75
39449;BME280;25151;45.566;9.382;2023-05-22T10:22:17;99561.41;;;21.19;63.85
39449;BME280;25151;45.566;9.382;2023-05-22T10:25:21;99562.19;;;21.19;64.06
39449;BME280;25151;45.566;9.382;2023-05-22T10:28:29;99558.59;;;21.19;63.89
39449;BME280;25151;45.566;9.382;2023-05-22T10:31:40;99558.59;;;21.19;64.06
39449;BME280;25151;45.566;9.382;2023-05-22T10:41:20;99552.53;;;21.20;63.96
39449;BME280;25151;45.566;9.382;2023-05-22T10:44:22;99554.53;;;21.20;63.87
39449;BME280;25151;45.566;9.382;2023-05-22T10:47:25;99559.69;;;21.21;64.14
39449;BME280;25151;45.566;9.382;2023-05-22T10:50:26;99548.47;;;21.21;64.23
39449;BME280;25151;45.566;9.382;2023-05-22T10:53:30;99549.25;;;21.22;63.80
39449;BME280;25151;45.566;9.382;2023-05-22T10:56:32;99550.81;;;21.23;63.99
39449;BME280;25151;45.566;9.382;2023-05-22T10:59:34;99548.03;;;21.23;64.09
39449;BME280;25151;45.566;9.382;2023-05-22T11:02:40;99541.16;;;21.24;63.91
39449;BME280;25151;45.566;9.382;2023-05-22T11:05:51;99544.75;;;21.24;64.20
39449;BME280;25151;45.566;9.382;2023-05-22T11:08:54;99548.31;;;21.25;63.85
39449;BME280;25151;45.566;9.382;2023-05-22T11:12:24;99539.47;;;21.26;64.34
39449;BME280;25151;45.566;9.382;2023-05-22T11:15:30;99538.22;;;21.27;64.27
39449;BME280;25151;45.566;9.382;2023-05-22T11:18:31;99536.19;;;21.28;64.27
39449;BME280;25151;45.566;9.382;2023-05-22T11:21:41;99527.78;;;21.28;64.29
39449;BME280;25151;45.566;9.382;2023-05-22T11:24:45;99532.16;;;21.29;64.19
39449;BME280;25151;45.566;9.382;2023-05-22T11:27:47;99528.09;;;21.30;64.22
39449;BME280;25151;45.566;9.382;2023-05-22T11:30:48;99526.88;;;21.31;64.47
39449;BME280;25151;45.566;9.382;2023-05-22T11:33:49;99525.28;;;21.30;64.28
39449;BME280;25151;45.566;9.382;2023-05-22T11:36:51;99535.28;;;21.31;64.27
39449;BME280;25151;45.566;9.382;2023-05-22T11:40:02;99525.63;;;21.32;64.12
39449;BME280;25151;45.566;9.382;2023-05-22T11:43:03;99522.38;;;21.33;64.27
39449;BME280;25151;45.566;9.382;2023-05-22T11:46:08;99522.38;;;21.33;64.17
39449;BME280;25151;45.566;9.382;2023-05-22T11:49:10;99520.81;;;21.32;64.40
39449;BME280;25151;45.566;9.382;2023-05-22T11:52:15;99525.19;;;21.33;64.27
39449;BME280;25151;45.566;9.382;2023-05-22T11:55:16;99519.56;;;21.33;64.06
39449;BME280;25151;45.566;9.382;2023-05-22T11:58:26;99518.34;;;21.34;64.22
39449;BME280;25151;45.566;9.382;2023-05-22T12:01:26;99512.75;;;21.34;64.25
39449;BME280;25151;45.566;9.382;2023-05-22T12:04:27;99522.69;;;21.35;64.43
39449;BME280;25151;45.566;9.382;2023-05-22T12:07:28;99514.72;;;21.34;64.12
39449;BME280;25151;45.566;9.382;2023-05-22T12:10:29;99520.69;;;21.36;64.39
39449;BME280;25151;45.566;9.382;2023-05-22T12:13:30;99517.88;;;21.36;64.15
39449;BME280;25151;45.566;9.382;2023-05-22T12:16:35;99515.06;;;21.36;64.10
39449;BME280;25151;45.566;9.382;2023-05-22T12:19:39;99519.91;;;21.35;63.98
39449;BME280;25151;45.566;9.382;2023-05-22T12:22:41;99513.50;;;21.35;64.30
39449;BME280;25151;45.566;9.382;2023-05-22T12:25:42;99495.09;;;21.34;64.26
39449;BME280;25151;45.566;9.382;2023-05-22T12:28:43;99505.09;;;21.35;64.42
39449;BME280;25151;45.566;9.382;2023-05-22T12:31:44;99502.28;;;21.35;64.27
39449;BME280;25151;45.566;9.382;2023-05-22T12:34:49;99496.69;;;21.35;64.46
39449;BME280;25151;45.566;9.382;2023-05-22T12:37:50;99494.97;;;21.38;64.24
39449;BME280;25151;45.566;9.382;2023-05-22T12:40:52;99495.75;;;21.38;64.21
39449;BME280;25151;45.566;9.382;2023-05-22T12:43:57;99490.13;;;21.38;64.50
39449;BME280;25151;45.566;9.382;2023-05-22T12:46:58;99485.31;;;21.39;64.24
39449;BME280;25151;45.566;9.382;2023-05-22T12:49:59;99490.94;;;21.39;64.38
39449;BME280;25151;45.566;9.382;2023-05-22T12:53:01;99483.28;;;21.39;64.42
39449;BME280;25151;45.566;9.382;2023-05-22T12:56:01;99482.03;;;21.40;64.41
39449;BME280;25151;45.566;9.382;2023-05-22T12:59:03;99490.00;;;21.42;64.40
39449;BME280;25151;45.566;9.382;2023-05-22T13:02:04;99481.56;;;21.42;64.01
39449;BME280;25151;45.566;9.382;2023-05-22T13:05:05;99485.97;;;21.43;64.52
39449;BME280;25151;45.566;9.382;2023-05-22T13:08:06;99481.13;;;21.43;64.20
39449;BME280;25151;45.566;9.382;2023-05-22T13:11:07;99482.69;;;21.44;64.27
39449;BME280;25151;45.566;9.382;2023-05-22T13:14:07;99477.06;;;21.44;64.47
39449;BME280;25151;45.566;9.382;2023-05-22T13:17:08;99477.84;;;21.45;64.35
39449;BME280;25151;45.566;9.382;2023-05-22T13:20:10;99474.59;;;21.46;64.26
39449;BME280;25151;45.566;9.382;2023-05-22T13:23:11;99471.78;;;21.46;64.29
39449;BME280;25151;45.566;9.382;2023-05-22T13:26:11;99473.00;;;21.45;64.01
39449;BME280;25151;45.566;9.382;2023-05-22T13:29:12;99469.00;;;21.46;64.15
39449;BME280;25151;45.566;9.382;2023-05-22T13:32:13;99467.72;;;21.47;64.15
39449;BME280;25151;45.566;9.382;2023-05-22T13:35:14;99454.97;;;21.46;64.22
39449;BME280;25151;45.566;9.382;2023-05-22T13:38:15;99452.47;;;21.48;64.18
39449;BME280;25151;45.566;9.382;2023-05-22T13:41:16;99451.19;;;21.49;64.33
39449;BME280;25151;45.566;9.382;2023-05-22T13:44:17;99451.19;;;21.49;64.39
39449;BME280;25151;45.566;9.382;2023-05-22T13:47:21;99447.19;;;21.50;64.33
39449;BME280;25151;45.566;9.382;2023-05-22T13:50:25;99442.34;;;21.51;64.05
39449;BME280;25151;45.566;9.382;2023-05-22T13:53:26;99447.19;;;21.50;64.09
39449;BME280;25151;45.566;9.382;2023-05-22T13:56:26;99438.28;;;21.52;64.26
39449;BME280;25151;45.566;9.382;2023-05-22T13:59:28;99440.31;;;21.51;64.42
39449;BME280;25151;45.566;9.382;2023-05-22T14:02:28;99433.44;;;21.52;64.21
39449;BME280;25151;45.566;9.382;2023-05-22T14:05:29;99430.66;;;21.52;64.14
39449;BME280;25151;45.566;9.382;2023-05-22T14:08:31;99423.78;;;21.53;64.26
39449;BME280;25151;45.566;9.382;2023-05-22T14:11:35;99421.75;;;21.54;63.97
39449;BME280;25151;45.566;9.382;2023-05-22T14:14:35;99418.16;;;21.53;64.18
39449;BME280;25151;45.566;9.382;2023-05-22T14:17:37;99419.41;;;21.52;64.08
39449;BME280;25151;45.566;9.382;2023-05-22T14:20:37;99420.97;;;21.53;64.04
39449;BME280;25151;45.566;9.382;2023-05-22T14:23:38;99419.41;;;21.52;64.17
39449;BME280;25151;45.566;9.382;2023-05-22T14:26:39;99414.59;;;21.53;64.10
39449;BME280;25151;45.566;9.382;2023-05-22T14:29:40;99403.84;;;21.51;64.13
39449;BME280;25151;45.566;9.382;2023-05-22T14:32:41;99405.88;;;21.51;64.15
39449;BME280;25151;45.566;9.382;2023-05-22T14:35:46;99406.66;;;21.51;64.05
39449;BME280;25151;45.566;9.382;2023-05-22T14:38:47;99398.22;;;21.51;63.78
39449;BME280;25151;45.566;9.382;2023-05-22T14:41:49;99395.44;;;21.51;64.19
39449;BME280;25151;45.566;9.382;2023-05-22T14:44:49;99392.63;;;21.51;63.79
39449;BME280;25151;45.566;9.382;2023-05-22T14:47:50;99400.25;;;21.51;63.90
39449;BME280;25151;45.566;9.382;2023-05-22T14:50:51;99395.09;;;21.49;63.93
39449;BME280;25151;45.566;9.382;2023-05-22T14:53:55;99383.09;;;21.49;64.01
39449;BME280;25151;45.566;9.382;2023-05-22T14:56:55;99381.56;;;21.48;64.03
39449;BME280;25151;45.566;9.382;2023-05-22T14:59:56;99383.88;;;21.49;64.04
39449;BME280;25151;45.566;9.382;2023-05-22T15:02:57;99378.28;;;21.49;63.92
39449;BME280;25151;45.566;9.382;2023-05-22T15:06:02;99376.72;;;21.48;64.12
39449;BME280;25151;45.566;9.382;2023-05-22T15:09:03;99389.50;;;21.49;63.94
39449;BME280;25151;45.566;9.382;2023-05-22T15:12:04;99389.50;;;21.49;64.08
39449;BME280;25151;45.566;9.382;2023-05-22T15:15:06;99377.97;;;21.47;64.14
39449;BME280;25151;45.566;9.382;2023-05-22T15:18:08;99380.00;;;21.47;63.82
39449;BME280;25151;45.566;9.382;2023-05-22T15:21:09;99380.78;;;21.47;63.82
39449;BME280;25151;45.566;9.382;2023-05-22T15:24:10;99374.38;;;21.47;63.80
39449;BME280;25151;45.566;9.382;2023-05-22T15:27:12;99384.84;;;21.46;63.94
39449;BME280;25151;45.566;9.382;2023-05-22T15:30:15;99388.72;;;21.49;64.09
39449;BME280;25151;45.566;9.382;2023-05-22T15:33:16;99369.84;;;21.49;63.77
39449;BME280;25151;45.566;9.382;2023-05-22T15:36:17;99367.38;;;21.51;63.72
39449;BME280;25151;45.566;9.382;2023-05-22T15:39:18;99367.38;;;21.51;63.58
39449;BME280;25151;45.566;9.382;2023-05-22T15:42:18;99374.06;;;21.54;63.91
39449;BME280;25151;45.566;9.382;2023-05-22T15:45:22;99365.19;;;21.55;64.14
39449;BME280;25151;45.566;9.382;2023-05-22T15:48:22;99358.03;;;21.54;64.04
39449;BME280;25151;45.566;9.382;2023-05-22T15:51:23;99360.34;;;21.56;64.24
39449;BME280;25151;45.566;9.382;2023-05-22T15:54:24;99355.53;;;21.56;63.97
39449;BME280;25151;45.566;9.382;2023-05-22T15:57:25;99360.34;;;21.56;64.12
39449;BME280;25151;45.566;9.382;2023-05-22T16:00:27;99352.72;;;21.56;64.47
39449;BME280;25151;45.566;9.382;2023-05-22T16:03:28;99348.66;;;21.57;64.53
39449;BME280;25151;45.566;9.382;2023-05-22T16:06:28;99345.84;;;21.57;64.62
39449;BME280;25151;45.566;9.382;2023-05-22T16:09:30;99352.28;;;21.58;64.49
39449;BME280;25151;45.566;9.382;2023-05-22T16:12:31;99348.66;;;21.57;64.52
39449;BME280;25151;45.566;9.382;2023-05-22T16:15:32;99352.28;;;21.58;64.84
39449;BME280;25151;45.566;9.382;2023-05-22T16:18:33;99353.81;;;21.59;64.36
39449;BME280;25151;45.566;9.382;2023-05-22T16:21:34;99353.03;;;21.58;64.81